Time,TemperatureF,DewpointF,PressureIn,WindDirection,WindDirectionDegrees,WindSpeedMPH,WindSpeedGustMPH,Humidity,HourlyPrecipIn,Conditions,Clouds,dailyrainin,SoftwareType,DateUTC
2013-04-27 00:01:00,50.0,8.0,-100.00,North,0,7.0,12.0,17,-99.99,,,-99.99,,2013-04-27 06:01:00,
2013-04-27 00:11:00,51.0,8.0,-100.00,North,0,10.0,12.0,17,-99.99,,,-99.99,,2013-04-27 06:11:00,
2013-04-27 00:21:00,50.0,8.0,-100.00,North,0,8.0,13.0,18,-99.99,,,-99.99,,2013-04-27 06:21:00,
2013-04-27 00:32:00,50.0,8.0,-100.00,North,350,10.0,-999.0,18,-99.99,,,-99.99,,2013-04-27 06:32:00,
2013-04-27 00:41:00,50.0,8.0,-100.00,NNW,345,9.0,13.0,18,-99.99,,,-99.99,,2013-04-27 06:41:00,
2013-04-27 00:51:00,50.0,8.0,-100.00,North,0,9.0,-999.0,18,-99.99,,,-99.99,,2013-04-27 06:51:00,
2013-04-27 01:01:00,49.0,8.0,-100.00,North,350,9.0,12.0,18,-99.99,,,-99.99,,2013-04-27 07:01:00,
2013-04-27 01:11:00,49.0,8.0,-100.00,NNW,345,7.0,12.0,18,-99.99,,,-99.99,,2013-04-27 07:11:00,
2013-04-27 01:21:00,49.0,8.0,-100.00,NW,325,6.0,10.0,18,-99.99,,,-99.99,,2013-04-27 07:21:00,
2013-04-27 01:31:00,49.0,8.0,-100.00,North,350,7.0,-999.0,18,-99.99,,,-99.99,,2013-04-27 07:31:00,
2013-04-27 01:41:00,49.0,8.0,-100.00,North,355,6.0,-999.0,18,-99.99,,,-99.99,,2013-04-27 07:41:00,
2013-04-27 01:52:00,48.0,8.0,-100.00,North,0,7.0,9.0,19,-99.99,,,-99.99,,2013-04-27 07:52:00,
2013-04-27 02:01:00,48.0,8.0,-100.00,North,355,6.0,7.0,19,-99.99,,,-99.99,,2013-04-27 08:01:00,
2013-04-27 02:11:00,48.0,8.0,-100.00,North,-999,-999.0,-999.0,19,-99.99,,,-99.99,,2013-04-27 08:11:00,
2013-04-27 02:21:00,48.0,8.0,-100.00,NNW,345,4.0,6.0,19,-99.99,,,-99.99,,2013-04-27 08:21:00,
2013-04-27 02:33:00,48.0,8.0,-100.00,NNW,340,4.0,6.0,19,-99.99,,,-99.99,,2013-04-27 08:33:00,
2013-04-27 02:41:00,47.0,8.0,-100.00,NNW,335,3.0,6.0,19,-99.99,,,-99.99,,2013-04-27 08:41:00,
2013-04-27 02:51:00,45.0,6.0,-100.00,West,280,0.0,-999.0,19,-99.99,,,-99.99,,2013-04-27 08:51:00,
2013-04-27 03:01:00,45.0,7.0,-100.00,West,260,0.0,0.0,20,-99.99,,,-99.99,,2013-04-27 09:01:00,
2013-04-27 03:11:00,45.0,7.0,-100.00,WSW,245,0.0,0.0,20,-99.99,,,-99.99,,2013-04-27 09:11:00,
2013-04-27 03:21:00,41.0,6.0,-100.00,ESE,120,0.0,1.0,22,-99.99,,,-99.99,,2013-04-27 09:21:00,
2013-04-27 03:33:00,37.0,5.0,-100.00,SE,125,1.0,3.0,25,-99.99,,,-99.99,,2013-04-27 09:33:00,
2013-04-27 03:42:00,37.0,6.0,-100.00,ESE,105,2.0,3.0,27,-99.99,,,-99.99,,2013-04-27 09:42:00,
2013-04-27 03:53:00,41.0,9.0,-100.00,North,-999,-999.0,-999.0,25,-99.99,,,-99.99,,2013-04-27 09:53:00,
2013-04-27 04:02:00,43.0,9.0,-100.00,ESE,105,2.0,4.0,24,-99.99,,,-99.99,,2013-04-27 10:02:00,
2013-04-27 04:11:00,42.0,9.0,-100.00,ESE,105,4.0,4.0,25,-99.99,,,-99.99,,2013-04-27 10:11:00,
2013-04-27 04:22:00,37.0,7.0,-100.00,ESE,110,4.0,4.0,28,-99.99,,,-99.99,,2013-04-27 10:22:00,
2013-04-27 04:32:00,37.0,8.0,-100.00,South,170,0.0,4.0,29,-99.99,,,-99.99,,2013-04-27 10:32:00,
2013-04-27 04:42:00,39.0,9.0,-100.00,SW,225,3.0,4.0,28,-99.99,,,-99.99,,2013-04-27 10:42:00,
2013-04-27 04:52:00,42.0,10.0,-100.00,SW,225,1.0,4.0,25,-99.99,,,-99.99,,2013-04-27 10:52:00,
2013-04-27 05:02:00,43.0,10.0,-100.00,SW,225,0.0,0.0,25,-99.99,,,-99.99,,2013-04-27 11:02:00,
2013-04-27 05:11:00,38.0,7.0,-100.00,ESE,115,4.0,5.0,27,-99.99,,,-99.99,,2013-04-27 11:11:00,
2013-04-27 05:21:00,34.0,7.0,-100.00,ESE,120,4.0,5.0,32,-99.99,,,-99.99,,2013-04-27 11:21:00,
2013-04-27 05:31:00,33.0,8.0,-100.00,ESE,115,4.0,6.0,34,-99.99,,,-99.99,,2013-04-27 11:31:00,
2013-04-27 05:41:00,34.0,9.0,-100.00,ESE,110,3.0,6.0,35,-99.99,,,-99.99,,2013-04-27 11:41:00,
2013-04-27 05:51:00,35.0,11.0,-100.00,SE,125,3.0,4.0,35,-99.99,,,-99.99,,2013-04-27 11:51:00,
2013-04-27 06:01:00,36.0,11.0,-100.00,East,90,1.0,4.0,35,-99.99,,,-99.99,,2013-04-27 12:01:00,
2013-04-27 06:11:00,36.0,11.0,-100.00,SE,135,1.0,3.0,34,-99.99,,,-99.99,,2013-04-27 12:11:00,
2013-04-27 06:21:00,41.0,12.0,-100.00,WSW,240,0.0,3.0,30,-99.99,,,-99.99,,2013-04-27 12:21:00,
2013-04-27 06:32:00,42.0,11.0,-100.00,West,260,0.0,2.0,28,-99.99,,,-99.99,,2013-04-27 12:32:00,
2013-04-27 06:42:00,42.0,11.0,-100.00,WSW,240,0.0,1.0,27,-99.99,,,-99.99,,2013-04-27 12:42:00,
2013-04-27 06:51:00,34.0,9.0,-100.00,East,100,4.0,7.0,34,-99.99,,,-99.99,,2013-04-27 12:51:00,
2013-04-27 07:01:00,32.0,9.0,-100.00,East,90,6.0,6.0,38,-99.99,,,-99.99,,2013-04-27 13:01:00,
2013-04-27 07:11:00,34.0,11.0,-100.00,ESE,120,4.0,5.0,38,-99.99,,,-99.99,,2013-04-27 13:11:00,
2013-04-27 07:21:00,36.0,13.0,-100.00,North,-999,-999.0,-999.0,37,-99.99,,,-99.99,,2013-04-27 13:21:00,
2013-04-27 07:32:00,37.0,14.0,-100.00,SSE,160,6.0,-999.0,37,-99.99,,,-99.99,,2013-04-27 13:32:00,
2013-04-27 07:41:00,38.0,14.0,-100.00,ESE,120,5.0,-999.0,36,-99.99,,,-99.99,,2013-04-27 13:41:00,
2013-04-27 07:52:00,40.0,16.0,-100.00,SE,135,6.0,-999.0,37,-99.99,,,-99.99,,2013-04-27 13:52:00,
2013-04-27 08:02:00,43.0,17.0,-100.00,SE,140,6.0,7.0,35,-99.99,,,-99.99,,2013-04-27 14:02:00,
2013-04-27 08:11:00,44.0,18.0,-100.00,SE,140,4.0,7.0,34,-99.99,,,-99.99,,2013-04-27 14:11:00,
2013-04-27 08:21:00,47.0,18.0,-100.00,SSW,205,7.0,11.0,31,-99.99,,,-99.99,,2013-04-27 14:21:00,
2013-04-27 08:31:00,48.0,18.0,-100.00,SW,215,9.0,10.0,29,-99.99,,,-99.99,,2013-04-27 14:31:00,
2013-04-27 08:41:00,49.0,19.0,-100.00,SW,220,9.0,11.0,29,-99.99,,,-99.99,,2013-04-27 14:41:00,
2013-04-27 08:52:00,50.0,18.0,-100.00,SW,220,10.0,12.0,27,-99.99,,,-99.99,,2013-04-27 14:52:00,
2013-04-27 09:01:00,52.0,18.0,-100.00,SW,230,11.0,12.0,26,-99.99,,,-99.99,,2013-04-27 15:01:00,
2013-04-27 09:11:00,52.0,18.0,-100.00,SW,220,9.0,12.0,25,-99.99,,,-99.99,,2013-04-27 15:11:00,
2013-04-27 09:21:00,56.0,19.0,-100.00,West,275,6.0,9.0,23,-99.99,,,-99.99,,2013-04-27 15:21:00,
2013-04-27 09:33:00,56.0,18.0,-100.00,WSW,250,5.0,9.0,21,-99.99,,,-99.99,,2013-04-27 15:33:00,
2013-04-27 09:42:00,58.0,19.0,-100.00,West,270,4.0,8.0,21,-99.99,,,-99.99,,2013-04-27 15:42:00,
2013-04-27 09:52:00,59.0,17.0,-100.00,WSW,250,4.0,9.0,19,-99.99,,,-99.99,,2013-04-27 15:52:00,
2013-04-27 10:02:00,60.0,18.0,-100.00,NW,320,4.0,7.0,19,-99.99,,,-99.99,,2013-04-27 16:02:00,
2013-04-27 10:13:00,59.0,17.0,-100.00,WSW,250,4.0,7.0,19,-99.99,,,-99.99,,2013-04-27 16:13:00,
2013-04-27 10:22:00,59.0,17.0,-100.00,WSW,250,2.0,11.0,19,-99.99,,,-99.99,,2013-04-27 16:22:00,
2013-04-27 10:32:00,61.0,17.0,-100.00,NNW,330,4.0,9.0,18,-99.99,,,-99.99,,2013-04-27 16:32:00,
2013-04-27 10:42:00,61.0,17.0,-100.00,NW,325,6.0,11.0,18,-99.99,,,-99.99,,2013-04-27 16:42:00,
2013-04-27 10:52:00,60.0,16.0,-100.00,NNW,330,1.0,9.0,18,-99.99,,,-99.99,,2013-04-27 16:52:00,
2013-04-27 11:02:00,62.0,17.0,-100.00,West,280,6.0,10.0,16,-99.99,,,-99.99,,2013-04-27 17:02:00,
2013-04-27 11:11:00,63.0,16.0,-100.00,East,80,0.0,10.0,16,-99.99,,,-99.99,,2013-04-27 17:11:00,
2013-04-27 11:22:00,61.0,16.0,-100.00,WSW,250,9.0,12.0,16,-99.99,,,-99.99,,2013-04-27 17:22:00,
2013-04-27 11:31:00,62.0,15.0,-100.00,SSE,150,7.0,-999.0,16,-99.99,,,-99.99,,2013-04-27 17:31:00,
2013-04-27 11:42:00,60.0,15.0,-100.00,SW,220,7.0,17.0,16,-99.99,,,-99.99,,2013-04-27 17:42:00,
2013-04-27 11:52:00,61.0,15.0,-100.00,SSE,150,4.0,12.0,16,-99.99,,,-99.99,,2013-04-27 17:52:00,
2013-04-27 12:02:00,63.0,15.0,-100.00,South,170,4.0,12.0,15,-99.99,,,-99.99,,2013-04-27 18:02:00,
2013-04-27 12:11:00,62.0,15.0,-100.00,SSW,200,10.0,14.0,15,-99.99,,,-99.99,,2013-04-27 18:11:00,
2013-04-27 12:21:00,62.0,15.0,-100.00,SW,215,11.0,18.0,16,-99.99,,,-99.99,,2013-04-27 18:21:00,
2013-04-27 12:32:00,63.0,16.0,-100.00,SW,230,11.0,29.0,16,-99.99,,,-99.99,,2013-04-27 18:32:00,
2013-04-27 12:41:00,62.0,15.0,-100.00,SW,225,13.0,22.0,15,-99.99,,,-99.99,,2013-04-27 18:41:00,
2013-04-27 12:51:00,62.0,15.0,-100.00,SSW,195,8.0,17.0,15,-99.99,,,-99.99,,2013-04-27 18:51:00,
2013-04-27 13:01:00,63.0,16.0,-100.00,SW,215,9.0,17.0,16,-99.99,,,-99.99,,2013-04-27 19:01:00,
2013-04-27 13:11:00,64.0,17.0,-100.00,SSW,195,9.0,19.0,16,-99.99,,,-99.99,,2013-04-27 19:11:00,
2013-04-27 13:21:00,65.0,17.0,-100.00,West,260,11.0,22.0,15,-99.99,,,-99.99,,2013-04-27 19:21:00,
2013-04-27 13:31:00,66.0,17.0,-100.00,SSW,205,6.0,14.0,14,-99.99,,,-99.99,,2013-04-27 19:31:00,
2013-04-27 13:41:00,67.0,17.0,-100.00,WNW,285,12.0,24.0,14,-99.99,,,-99.99,,2013-04-27 19:41:00,
2013-04-27 13:52:00,67.0,17.0,-100.00,West,275,9.0,24.0,14,-99.99,,,-99.99,,2013-04-27 19:52:00,
2013-04-27 14:02:00,67.0,17.0,-100.00,West,275,9.0,24.0,14,-99.99,,,-99.99,,2013-04-27 20:02:00,
2013-04-27 14:11:00,67.0,17.0,-100.00,West,275,9.0,24.0,14,-99.99,,,-99.99,,2013-04-27 20:11:00,
2013-04-27 14:21:00,67.0,16.0,-100.00,WNW,290,9.0,17.0,14,-99.99,,,-99.99,,2013-04-27 20:21:00,
2013-04-27 14:31:00,67.0,16.0,-100.00,SW,235,8.0,18.0,14,-99.99,,,-99.99,,2013-04-27 20:31:00,
2013-04-27 14:42:00,67.0,18.0,-100.00,West,275,14.0,22.0,14,-99.99,,,-99.99,,2013-04-27 20:42:00,
2013-04-27 14:52:00,67.0,18.0,-100.00,West,275,14.0,22.0,14,-99.99,,,-99.99,,2013-04-27 20:52:00,
2013-04-27 15:02:00,66.0,17.0,-100.00,WSW,245,16.0,-999.0,14,-99.99,,,-99.99,,2013-04-27 21:02:00,
2013-04-27 15:11:00,67.0,17.0,-100.00,WSW,255,19.0,26.0,14,-99.99,,,-99.99,,2013-04-27 21:11:00,
2013-04-27 15:21:00,68.0,15.0,-100.00,WNW,285,16.0,20.0,12,-99.99,,,-99.99,,2013-04-27 21:21:00,
2013-04-27 15:32:00,69.0,15.0,-100.00,West,280,15.0,20.0,12,-99.99,,,-99.99,,2013-04-27 21:32:00,
2013-04-27 15:42:00,70.0,15.0,-100.00,NW,310,9.0,15.0,12,-99.99,,,-99.99,,2013-04-27 21:42:00,
2013-04-27 15:53:00,70.0,15.0,-100.00,NW,310,7.0,17.0,12,-99.99,,,-99.99,,2013-04-27 21:53:00,
2013-04-27 16:02:00,67.0,15.0,-100.00,West,275,15.0,29.0,12,-99.99,,,-99.99,,2013-04-27 22:02:00,
2013-04-27 16:12:00,67.0,15.0,-100.00,WNW,285,16.0,29.0,13,-99.99,,,-99.99,,2013-04-27 22:12:00,
2013-04-27 16:22:00,68.0,15.0,-100.00,NW,315,15.0,23.0,12,-99.99,,,-99.99,,2013-04-27 22:22:00,
2013-04-27 16:32:00,67.0,14.0,-100.00,WSW,250,17.0,24.0,12,-99.99,,,-99.99,,2013-04-27 22:32:00,
2013-04-27 16:42:00,67.0,14.0,-100.00,West,270,12.0,24.0,12,-99.99,,,-99.99,,2013-04-27 22:42:00,
2013-04-27 16:52:00,66.0,13.0,-100.00,SW,235,15.0,25.0,12,-99.99,,,-99.99,,2013-04-27 22:52:00,
2013-04-27 17:02:00,67.0,13.0,-100.00,WNW,285,12.0,24.0,12,-99.99,,,-99.99,,2013-04-27 23:02:00,
2013-04-27 17:22:00,69.0,13.0,-100.00,NW,310,12.0,19.0,11,-99.99,,,-99.99,,2013-04-27 23:22:00,
2013-04-27 17:32:00,69.0,13.0,-100.00,West,280,9.0,19.0,11,-99.99,,,-99.99,,2013-04-27 23:32:00,
2013-04-27 17:42:00,69.0,13.0,-100.00,WNW,285,14.0,19.0,11,-99.99,,,-99.99,,2013-04-27 23:42:00,
2013-04-27 17:52:00,67.0,12.0,-100.00,NW,315,12.0,22.0,11,-99.99,,,-99.99,,2013-04-27 23:52:00,
2013-04-27 18:01:00,67.0,13.0,-100.00,WNW,300,12.0,20.0,12,-99.99,,,-99.99,,2013-04-28 00:01:00,
2013-04-27 18:11:00,67.0,13.0,-100.00,West,270,16.0,23.0,12,-99.99,,,-99.99,,2013-04-28 00:11:00,
2013-04-27 18:21:00,66.0,14.0,-100.00,West,270,11.0,14.0,12,-99.99,,,-99.99,,2013-04-28 00:21:00,
2013-04-27 18:31:00,67.0,15.0,-100.00,WNW,290,12.0,16.0,12,-99.99,,,-99.99,,2013-04-28 00:31:00,
2013-04-27 18:42:00,67.0,13.0,-100.00,WNW,285,16.0,20.0,12,-99.99,,,-99.99,,2013-04-28 00:42:00,
2013-04-27 18:51:00,66.0,12.0,-100.00,WNW,290,14.0,22.0,12,-99.99,,,-99.99,,2013-04-28 00:51:00,
2013-04-27 19:01:00,65.0,12.0,-100.00,West,275,19.0,26.0,12,-99.99,,,-99.99,,2013-04-28 01:01:00,
2013-04-27 19:11:00,63.0,11.0,-100.00,West,270,21.0,28.0,12,-99.99,,,-99.99,,2013-04-28 01:11:00,
2013-04-27 19:21:00,63.0,12.0,-100.00,West,270,17.0,28.0,13,-99.99,,,-99.99,,2013-04-28 01:21:00,
2013-04-27 19:31:00,61.0,12.0,-100.00,West,265,16.0,-999.0,14,-99.99,,,-99.99,,2013-04-28 01:31:00,
2013-04-27 19:41:00,61.0,12.0,-100.00,West,260,16.0,22.0,14,-99.99,,,-99.99,,2013-04-28 01:41:00,
2013-04-27 19:52:00,60.0,12.0,-100.00,North,-999,-999.0,-999.0,14,-99.99,,,-99.99,,2013-04-28 01:52:00,
2013-04-27 20:01:00,59.0,12.0,-100.00,North,-999,-999.0,-999.0,15,-99.99,,,-99.99,,2013-04-28 02:01:00,
2013-04-27 20:11:00,59.0,12.0,-100.00,West,265,19.0,-999.0,15,-99.99,,,-99.99,,2013-04-28 02:11:00,
2013-04-27 20:21:00,58.0,12.0,-100.00,WSW,255,16.0,24.0,16,-99.99,,,-99.99,,2013-04-28 02:21:00,
2013-04-27 20:31:00,58.0,13.0,-100.00,WSW,255,15.0,-999.0,16,-99.99,,,-99.99,,2013-04-28 02:31:00,
2013-04-27 20:41:00,56.0,13.0,-100.00,WSW,255,12.0,17.0,17,-99.99,,,-99.99,,2013-04-28 02:41:00,
2013-04-27 20:52:00,56.0,13.0,-100.00,West,260,12.0,17.0,18,-99.99,,,-99.99,,2013-04-28 02:52:00,
2013-04-27 21:01:00,55.0,14.0,-100.00,WSW,250,9.0,15.0,19,-99.99,,,-99.99,,2013-04-28 03:01:00,
2013-04-27 21:11:00,55.0,14.0,-100.00,WSW,255,11.0,14.0,19,-99.99,,,-99.99,,2013-04-28 03:11:00,
2013-04-27 21:21:00,54.0,14.0,-100.00,West,260,9.0,10.0,19,-99.99,,,-99.99,,2013-04-28 03:21:00,
2013-04-27 21:32:00,54.0,14.0,-100.00,WSW,245,6.0,11.0,20,-99.99,,,-99.99,,2013-04-28 03:32:00,
2013-04-27 21:42:00,53.0,14.0,-100.00,West,260,4.0,9.0,20,-99.99,,,-99.99,,2013-04-28 03:42:00,
2013-04-27 21:53:00,52.0,14.0,-100.00,WSW,250,7.0,9.0,21,-99.99,,,-99.99,,2013-04-28 03:53:00,
2013-04-27 22:02:00,51.0,14.0,-100.00,WSW,250,6.0,11.0,21,-99.99,,,-99.99,,2013-04-28 04:02:00,
2013-04-27 22:13:00,53.0,15.0,-100.00,West,265,9.0,12.0,21,-99.99,,,-99.99,,2013-04-28 04:13:00,
2013-04-27 22:22:00,54.0,14.0,-100.00,West,265,11.0,13.0,20,-99.99,,,-99.99,,2013-04-28 04:22:00,
2013-04-27 22:32:00,54.0,14.0,-100.00,West,265,8.0,14.0,20,-99.99,,,-99.99,,2013-04-28 04:32:00,
2013-04-27 22:42:00,51.0,14.0,-100.00,SW,235,8.0,11.0,22,-99.99,,,-99.99,,2013-04-28 04:42:00,
2013-04-27 22:52:00,49.0,14.0,-100.00,SW,230,9.0,11.0,24,-99.99,,,-99.99,,2013-04-28 04:52:00,
2013-04-27 23:02:00,49.0,14.0,-100.00,SW,230,10.0,12.0,24,-99.99,,,-99.99,,2013-04-28 05:02:00,
2013-04-27 23:12:00,50.0,15.0,-100.00,SW,235,9.0,12.0,23,-99.99,,,-99.99,,2013-04-28 05:12:00,
2013-04-27 23:22:00,52.0,15.0,-100.00,WSW,250,12.0,15.0,22,-99.99,,,-99.99,,2013-04-28 05:22:00,
2013-04-27 23:32:00,52.0,15.0,-100.00,WSW,250,11.0,14.0,22,-99.99,,,-99.99,,2013-04-28 05:32:00,
2013-04-27 23:42:00,51.0,15.0,-100.00,WSW,250,11.0,13.0,23,-99.99,,,-99.99,,2013-04-28 05:42:00,
2013-04-27 23:51:00,52.0,15.0,-100.00,WSW,255,11.0,13.0,22,-99.99,,,-99.99,,2013-04-28 05:51:00,